Time;durP1;ratioP1;P1;durP2;ratioP2;P2;SDS_P1;SDS_P2;PMS_P1;PMS_P2;Temp;Humidity;BMP_temperature;BMP_pressure;BME280_temperature;BME280_humidity;BME280_pressure;Samples;Min_cycle;Max_cycle;Signal;HPM_P1;HPM_P2
2022/04/16 00:01:00;;;;;;;1.53;1.43;;;12.40;59.80;12.60;97291.00;;;;5034636;28;20201;-85
2022/04/16 00:03:29;;;;;;;1.77;1.67;;;12.40;60.00;12.50;97290.00;;;;5034841;28;20221;-85
2022/04/16 00:05:57;;;;;;;1.53;1.43;;;12.30;60.10;12.50;97277.00;;;;5034867;28;20633;-85
2022/04/16 00:08:28;;;;;;;1.53;1.43;;;12.30;60.20;12.40;97280.00;;;;5034793;28;20662;-84
2022/04/16 00:10:56;;;;;;;1.70;1.60;;;12.30;60.40;12.40;97280.00;;;;5034971;28;20211;-85
2022/04/16 00:13:24;;;;;;;1.40;1.30;;;12.20;60.50;12.40;97271.00;;;;5034415;28;20706;-85
2022/04/16 00:15:53;;;;;;;1.50;1.40;;;12.20;60.80;12.30;97274.00;;;;5034308;28;20194;-85
2022/04/16 00:18:21;;;;;;;1.10;1.10;;;12.10;61.00;12.30;97273.00;;;;5034574;28;20197;-85
2022/04/16 00:20:51;;;;;;;1.33;1.23;;;12.00;61.20;12.30;97282.00;;;;5033905;28;20205;-85
2022/04/16 00:23:20;;;;;;;1.50;1.40;;;12.00;61.30;12.20;97271.00;;;;5034304;28;20227;-85
2022/04/16 00:25:49;;;;;;;1.57;1.47;;;12.00;61.30;12.20;97274.00;;;;5034364;28;20199;-84
2022/04/16 00:28:16;;;;;;;1.50;1.40;;;12.00;61.40;12.10;97269.00;;;;5034770;28;20205;-85
2022/04/16 00:30:43;;;;;;;1.67;1.57;;;11.90;61.60;12.10;97268.00;;;;5038398;28;20217;-84
2022/04/16 00:33:13;;;;;;;1.10;1.10;;;11.90;61.80;12.10;97260.00;;;;5042205;28;20247;-85
2022/04/16 00:35:43;;;;;;;1.43;1.33;;;11.90;62.00;12.10;97265.00;;;;5036392;28;20201;-85
2022/04/16 00:38:10;;;;;;;1.30;1.23;;;11.80;62.00;12.00;97261.00;;;;5034487;28;20198;-85
2022/04/16 00:40:38;;;;;;;1.43;1.30;;;11.80;62.20;12.00;97268.00;;;;5034496;28;20667;-84
2022/04/16 00:43:06;;;;;;;1.40;1.30;;;11.80;62.30;12.00;97259.00;;;;5034031;28;20225;-84
2022/04/16 00:45:34;;;;;;;1.50;1.40;;;11.80;62.40;12.00;97253.00;;;;5034003;28;20188;-83
2022/04/16 00:48:01;;;;;;;1.70;1.60;;;11.70;62.50;12.00;97253.00;;;;5034207;28;20717;-83
2022/04/16 00:50:28;;;;;;;1.43;1.33;;;11.70;63.30;11.90;97253.00;;;;5037617;28;20323;-83
2022/04/16 00:52:56;;;;;;;2.90;1.80;;;11.70;62.70;11.90;97261.00;;;;5035615;28;20248;-83
2022/04/16 00:58:06;;;;;;;2.17;1.80;;;11.70;63.00;11.80;97254.00;;;;5030726;28;20583;-86
2022/04/16 01:00:33;;;;;;;1.60;1.50;;;11.60;62.70;11.80;97253.00;;;;5025920;28;20212;-86
2022/04/16 01:03:01;;;;;;;1.50;1.40;;;11.60;62.70;11.80;97248.00;;;;5026636;28;20194;-86
2022/04/16 01:05:28;;;;;;;1.60;1.50;;;11.60;62.80;11.70;97243.00;;;;5031792;28;20655;-86
2022/04/16 01:07:58;;;;;;;1.70;1.60;;;11.60;62.90;11.70;97243.00;;;;5012011;28;20202;-86
2022/04/16 01:10:28;;;;;;;1.57;1.47;;;11.60;63.00;11.70;97249.00;;;;5010129;28;20320;-85
2022/04/16 01:12:56;;;;;;;1.83;1.37;;;11.50;63.00;11.70;97243.00;;;;4993730;28;20675;-85
2022/04/16 01:15:27;;;;;;;1.43;1.33;;;11.50;63.20;11.60;97236.00;;;;4996917;28;20281;-86
2022/04/16 01:17:54;;;;;;;1.43;1.37;;;11.50;63.20;11.60;97238.00;;;;4996419;28;20206;-86
2022/04/16 01:20:22;;;;;;;1.90;1.80;;;11.40;63.20;11.60;97237.00;;;;5004714;28;20210;-86
2022/04/16 01:22:52;;;;;;;2.37;1.80;;;11.40;63.20;11.60;97241.00;;;;5008925;28;20873;-86
2022/04/16 01:25:20;;;;;;;1.70;1.60;;;11.40;63.40;11.50;97245.00;;;;5005557;28;20198;-85
2022/04/16 01:27:47;;;;;;;1.43;1.33;;;11.30;63.30;11.50;97248.00;;;;4993344;28;20225;-85
2022/04/16 01:30:17;;;;;;;1.80;1.70;;;11.30;63.40;11.50;97246.00;;;;5012501;28;20227;-84
2022/04/16 01:32:46;;;;;;;1.73;1.63;;;11.30;63.50;11.50;97246.00;;;;5011964;28;20208;-86
2022/04/16 01:35:13;;;;;;;1.40;1.33;;;11.30;63.70;11.40;97247.00;;;;5006900;28;20190;-86
2022/04/16 01:37:40;;;;;;;1.50;1.40;;;11.30;63.90;11.40;97236.00;;;;4993071;28;20221;-86
2022/04/16 01:40:14;;;;;;;1.70;1.60;;;11.20;63.90;11.40;97239.00;;;;4993014;28;20656;-86
2022/04/16 01:42:43;;;;;;;1.90;1.80;;;11.20;64.00;11.30;97241.00;;;;4993539;28;20277;-86
2022/04/16 01:45:17;;;;;;;1.73;1.63;;;11.20;64.00;11.30;97248.00;;;;4997031;28;20201;-85
2022/04/16 01:47:44;;;;;;;1.80;1.70;;;11.20;64.90;11.30;97248.00;;;;5005714;28;20711;-86
2022/04/16 01:50:13;;;;;;;2.30;2.10;;;11.10;64.20;11.30;97246.00;;;;4994573;28;20224;-86
2022/04/16 01:52:42;;;;;;;1.80;1.70;;;11.10;64.50;11.30;97242.00;;;;4998262;28;20209;-86
2022/04/16 01:55:12;;;;;;;1.73;1.63;;;11.10;64.70;11.20;97243.00;;;;5010651;28;20559;-86
2022/04/16 01:57:40;;;;;;;1.80;1.70;;;11.10;64.80;11.20;97244.00;;;;4999990;28;20226;-86
2022/04/16 02:00:11;;;;;;;2.30;2.10;;;11.00;64.80;11.20;97240.00;;;;4992851;28;20195;-86
2022/04/16 02:02:38;;;;;;;2.00;1.90;;;11.10;65.10;11.20;97244.00;;;;4995677;28;20203;-86
2022/04/16 02:05:06;;;;;;;2.27;2.10;;;11.00;65.10;11.20;97240.00;;;;4994115;28;20226;-86
2022/04/16 02:07:33;;;;;;;2.40;2.20;;;11.10;65.00;11.20;97245.00;;;;4997293;28;20221;-85
2022/04/16 02:10:01;;;;;;;2.20;2.00;;;11.00;64.90;11.20;97241.00;;;;5012267;28;20233;-86
2022/04/16 02:12:30;;;;;;;2.40;2.20;;;11.00;64.90;11.20;97243.00;;;;5007737;28;20199;-86
2022/04/16 02:14:57;;;;;;;2.17;2.03;;;11.00;64.90;11.10;97243.00;;;;4994359;28;20257;-85
2022/04/16 02:17:24;;;;;;;2.73;2.27;;;11.00;65.00;11.10;97238.00;;;;5006118;28;20211;-85
2022/04/16 02:19:52;;;;;;;2.07;1.83;;;11.00;65.20;11.10;97234.00;;;;4992859;28;20286;-86
2022/04/16 02:22:19;;;;;;;2.07;1.97;;;10.90;65.20;11.10;97234.00;;;;4992888;28;20649;-86
2022/04/16 02:24:46;;;;;;;3.00;2.00;;;10.90;65.30;11.10;97228.00;;;;5011110;28;20667;-86
2022/04/16 02:27:14;;;;;;;2.23;2.03;;;10.90;65.30;11.00;97226.00;;;;4992217;28;20642;-86
2022/04/16 02:29:43;;;;;;;2.40;2.20;;;10.90;65.40;11.00;97233.00;;;;4995956;28;20199;-86
2022/04/16 02:32:11;;;;;;;2.23;2.03;;;10.90;65.50;11.00;97231.00;;;;4997522;28;20349;-85
2022/04/16 02:34:38;;;;;;;2.53;2.33;;;10.80;65.40;11.00;97234.00;;;;5013810;28;20198;-85
2022/04/16 02:37:05;;;;;;;2.40;2.20;;;10.80;65.50;11.00;97229.00;;;;5003094;28;20291;-85
2022/04/16 02:39:32;;;;;;;2.17;1.97;;;10.80;65.60;11.00;97227.00;;;;5013346;28;20229;-86
2022/04/16 02:41:59;;;;;;;2.70;2.50;;;10.80;65.70;11.00;97226.00;;;;5014435;28;20198;-86
2022/04/16 02:47:13;;;;;;;1.93;1.83;;;10.80;65.80;10.90;97222.00;;;;4996266;28;20229;-86
2022/04/16 02:49:40;;;;;;;2.03;1.93;;;10.80;65.70;10.90;97225.00;;;;4999231;28;20519;-85
2022/04/16 02:52:08;;;;;;;2.50;2.30;;;10.70;65.50;10.80;97222.00;;;;4998120;28;20191;-86
2022/04/16 02:54:35;;;;;;;2.27;2.07;;;10.70;65.50;10.80;97222.00;;;;5012670;28;20228;-85
2022/04/16 02:57:03;;;;;;;2.53;2.00;;;10.70;65.50;10.70;97212.00;;;;5014461;28;20225;-86
2022/04/16 02:59:30;;;;;;;2.50;2.30;;;10.70;65.60;10.70;97221.00;;;;5007069;28;20718;-85
2022/04/16 03:01:59;;;;;;;2.00;1.90;;;10.60;65.60;10.70;97231.00;;;;4996015;28;20228;-85
2022/04/16 03:04:28;;;;;;;2.40;2.20;;;10.60;65.60;10.70;97231.00;;;;4997407;28;20202;-86
2022/04/16 03:06:55;;;;;;;2.93;2.63;;;10.60;65.80;10.60;97229.00;;;;5009415;28;20213;-86
2022/04/16 03:09:22;;;;;;;2.60;2.40;;;10.50;65.80;10.50;97230.00;;;;5025210;28;20200;-85
2022/04/16 03:11:49;;;;;;;2.30;2.17;;;10.50;65.90;10.50;97227.00;;;;5014951;28;20236;-86
2022/04/16 03:19:47;;;;;;;2.83;2.60;;;10.30;66.00;10.40;97229.00;;;;4997035;28;20209;-86
2022/04/16 03:22:14;;;;;;;2.40;2.30;;;10.30;65.90;10.40;97232.00;;;;5014802;28;20201;-86
2022/04/16 03:24:42;;;;;;;2.10;2.00;;;10.30;65.90;10.30;97223.00;;;;5011859;28;20202;-86
2022/04/16 03:27:09;;;;;;;2.60;2.40;;;10.30;66.10;10.30;97222.00;;;;4996338;28;20213;-86
2022/04/16 03:29:37;;;;;;;2.60;2.40;;;10.30;66.30;10.30;97225.00;;;;5004224;28;20199;-85
2022/04/16 03:32:05;;;;;;;2.73;2.37;;;10.20;66.30;10.30;97229.00;;;;5013549;28;20218;-85
2022/04/16 03:34:32;;;;;;;2.60;2.40;;;10.20;66.60;10.30;97221.00;;;;5010791;28;20206;-86
2022/04/16 03:37:01;;;;;;;2.80;2.60;;;10.20;66.70;10.30;97221.00;;;;5006713;28;20565;-85
2022/04/16 03:39:28;;;;;;;2.57;2.37;;;10.20;67.00;10.30;97224.00;;;;4994723;28;20195;-85
2022/04/16 03:41:55;;;;;;;2.60;2.40;;;10.20;67.10;10.30;97227.00;;;;5009725;28;20208;-86
2022/04/16 03:44:22;;;;;;;2.90;2.70;;;10.20;67.30;10.30;97225.00;;;;5014639;28;20205;-85
2022/04/16 03:46:49;;;;;;;2.93;2.50;;;10.20;67.50;10.30;97222.00;;;;4998213;28;20218;-85
2022/04/16 03:49:16;;;;;;;2.87;2.67;;;10.20;67.70;10.30;97223.00;;;;4995122;28;20209;-85
2022/04/16 03:51:44;;;;;;;2.50;2.30;;;10.20;67.70;10.30;97219.00;;;;4995655;28;20229;-85
2022/04/16 04:00:05;;;;;;;3.03;2.73;;;10.30;67.90;10.50;97221.00;;;;4994709;28;20205;-85
2022/04/16 04:02:35;;;;;;;2.70;2.50;;;10.30;68.10;10.50;97228.00;;;;5012425;28;20227;-85
2022/04/16 04:05:04;;;;;;;2.87;2.50;;;10.30;68.40;10.60;97228.00;;;;5022132;28;20198;-85
2022/04/16 04:07:31;;;;;;;3.10;2.80;;;10.40;68.60;10.70;97227.00;;;;5023028;28;20220;-85
2022/04/16 04:09:59;;;;;;;2.77;2.57;;;10.40;68.70;10.70;97230.00;;;;5025790;28;20540;-86
2022/04/16 04:12:27;;;;;;;3.03;2.80;;;10.50;68.90;10.80;97233.00;;;;5014210;28;20504;-85
2022/04/16 04:14:54;;;;;;;3.23;2.67;;;10.50;69.00;10.90;97241.00;;;;5007979;28;20202;-85
2022/04/16 04:17:21;;;;;;;2.83;2.63;;;10.60;69.10;10.90;97238.00;;;;4994909;28;20719;-86
2022/04/16 04:19:49;;;;;;;2.90;2.60;;;10.60;69.20;11.00;97238.00;;;;4998650;28;20194;-85
2022/04/16 04:22:17;;;;;;;3.70;2.80;;;10.70;69.30;11.10;97230.00;;;;5014128;28;20205;-86
2022/04/16 04:24:45;;;;;;;2.90;2.70;;;10.80;69.40;11.10;97245.00;;;;5000783;28;20190;-85
2022/04/16 04:27:14;;;;;;;2.77;2.57;;;10.80;69.50;11.20;97245.00;;;;4997112;28;20229;-85
2022/04/16 04:29:41;;;;;;;3.57;2.97;;;10.90;69.70;11.30;97252.00;;;;5007118;28;20208;-85
2022/04/16 04:32:09;;;;;;;3.67;3.23;;;11.00;69.60;11.40;97254.00;;;;5016314;28;20222;-85
2022/04/16 04:34:36;;;;;;;2.73;2.53;;;11.10;69.60;11.50;97255.00;;;;5015992;28;20293;-86
2022/04/16 04:37:04;;;;;;;2.83;2.63;;;11.10;69.70;11.50;97258.00;;;;5001759;28;20223;-85
2022/04/16 04:39:31;;;;;;;2.90;2.70;;;11.20;69.70;11.60;97265.00;;;;5014485;28;20226;-86
2022/04/16 04:41:58;;;;;;;2.73;2.50;;;11.20;69.70;11.70;97269.00;;;;4999008;28;20217;-85
2022/04/16 04:44:26;;;;;;;3.17;2.97;;;11.30;69.50;11.70;97267.00;;;;4999383;28;20458;-85
2022/04/16 04:46:53;;;;;;;3.13;2.93;;;11.40;69.60;11.80;97267.00;;;;4997026;28;20218;-86
2022/04/16 04:49:21;;;;;;;2.57;2.37;;;11.40;69.40;11.80;97271.00;;;;4998404;28;20650;-85
2022/04/16 04:51:48;;;;;;;2.80;2.60;;;11.50;69.40;11.90;97265.00;;;;4997677;28;20218;-85
2022/04/16 04:54:15;;;;;;;2.50;2.30;;;11.60;69.50;11.90;97262.00;;;;4995206;28;20206;-85
2022/04/16 04:56:43;;;;;;;3.23;2.97;;;11.60;69.40;12.00;97278.00;;;;4993914;28;20226;-85
2022/04/16 04:59:10;;;;;;;3.30;3.00;;;11.70;69.40;12.10;97274.00;;;;5005046;28;20738;-85
2022/04/16 05:01:38;;;;;;;2.97;2.77;;;11.70;69.30;12.10;97273.00;;;;5013427;28;20212;-85
2022/04/16 05:04:06;;;;;;;2.67;2.47;;;11.80;69.30;12.20;97280.00;;;;5012380;28;20293;-86
2022/04/16 05:06:33;;;;;;;3.30;2.90;;;11.90;69.30;12.20;97279.00;;;;5001217;28;20586;-85
2022/04/16 05:09:00;;;;;;;3.07;2.77;;;11.90;69.20;12.30;97286.00;;;;4993392;28;20202;-85
2022/04/16 05:11:27;;;;;;;2.67;2.47;;;12.00;69.20;12.40;97289.00;;;;5010083;28;20222;-85
2022/04/16 05:13:54;;;;;;;2.87;2.67;;;12.10;69.20;12.40;97288.00;;;;5012187;28;20206;-85
2022/04/16 05:16:21;;;;;;;2.90;2.70;;;12.10;69.10;12.50;97280.00;;;;5001087;28;20244;-85
2022/04/16 05:18:49;;;;;;;3.17;2.93;;;12.20;69.10;12.50;97289.00;;;;4994833;28;20195;-85
2022/04/16 05:21:16;;;;;;;3.23;3.03;;;12.30;69.00;12.60;97294.00;;;;4993364;28;20289;-85
2022/04/16 05:23:43;;;;;;;3.13;2.93;;;12.30;68.90;12.60;97299.00;;;;5003256;28;20195;-85
2022/04/16 05:26:12;;;;;;;2.73;2.53;;;12.30;68.70;12.60;97294.00;;;;5002221;28;20214;-85
2022/04/16 05:28:40;;;;;;;3.50;3.20;;;12.40;68.70;12.70;97299.00;;;;5005511;28;20708;-85
2022/04/16 05:31:08;;;;;;;3.37;2.90;;;12.40;68.50;12.70;97299.00;;;;4993025;28;20227;-85
2022/04/16 05:36:21;;;;;;;2.90;2.70;;;12.50;68.40;12.70;97296.00;;;;4997906;28;20225;-85
2022/04/16 05:38:48;;;;;;;2.73;2.53;;;12.50;68.40;12.80;97301.00;;;;5003249;28;20600;-85
2022/04/16 05:41:16;;;;;;;3.00;2.80;;;12.60;68.30;12.80;97303.00;;;;5012641;28;20571;-85
2022/04/16 05:43:43;;;;;;;3.03;2.60;;;12.60;68.20;12.80;97302.00;;;;5009585;28;20198;-86
2022/04/16 05:46:11;;;;;;;3.30;3.10;;;12.60;68.20;12.80;97302.00;;;;4998173;28;20219;-85
2022/04/16 05:48:38;;;;;;;3.20;3.00;;;12.60;68.20;12.90;97304.00;;;;4992878;28;20194;-86
2022/04/16 05:51:05;;;;;;;2.77;2.57;;;12.70;68.10;12.90;97301.00;;;;4999805;28;20223;-84
2022/04/16 05:53:34;;;;;;;3.10;2.90;;;12.70;68.10;12.90;97295.00;;;;4995275;28;20202;-85
2022/04/16 05:56:01;;;;;;;3.37;3.07;;;12.70;68.10;13.00;97296.00;;;;4992811;28;20314;-85
2022/04/16 05:58:29;;;;;;;2.77;2.57;;;12.80;68.20;13.00;97297.00;;;;4993088;28;20207;-86
2022/04/16 06:00:56;;;;;;;2.83;2.63;;;12.80;68.20;13.10;97303.00;;;;5006026;28;20198;-85
2022/04/16 06:03:23;;;;;;;2.60;2.50;;;12.80;68.20;13.20;97310.00;;;;5013678;28;20197;-86
2022/04/16 06:05:52;;;;;;;2.90;2.70;;;12.90;68.30;13.20;97305.00;;;;5009016;28;20305;-86
2022/04/16 06:08:19;;;;;;;3.03;2.83;;;12.90;68.20;13.30;97306.00;;;;4997122;28;20602;-86
2022/04/16 06:10:47;;;;;;;2.80;2.60;;;13.00;68.10;13.30;97311.00;;;;5007991;28;20198;-85
2022/04/16 06:13:14;;;;;;;2.80;2.60;;;13.00;67.90;13.40;97307.00;;;;5003427;28;20202;-85
2022/04/16 06:15:42;;;;;;;2.70;2.50;;;13.10;68.00;13.40;97313.00;;;;5001342;28;20213;-86
2022/04/16 06:18:09;;;;;;;2.67;2.47;;;13.10;67.90;13.50;97318.00;;;;4998342;28;20198;-82
2022/04/16 06:20:36;;;;;;;2.60;2.40;;;13.10;67.80;13.50;97323.00;;;;5014918;28;20552;-82
2022/04/16 06:23:04;;;;;;;3.27;3.07;;;13.20;67.80;13.60;97320.00;;;;5005740;28;20301;-82
2022/04/16 06:25:32;;;;;;;2.90;2.70;;;13.20;68.40;13.60;97329.00;;;;5000834;28;20548;-82
2022/04/16 06:28:00;;;;;;;2.87;2.67;;;13.30;67.60;13.70;97335.00;;;;5018144;28;20206;-82
2022/04/16 06:30:28;;;;;;;3.07;2.87;;;13.30;67.40;13.70;97334.00;;;;5003107;28;20190;-82
2022/04/16 06:32:55;;;;;;;3.43;3.13;;;13.40;67.30;13.70;97336.00;;;;5008524;28;20221;-84
2022/04/16 06:35:22;;;;;;;3.27;2.90;;;13.40;67.30;13.80;97337.00;;;;5017213;28;20240;-83
2022/04/16 06:37:49;;;;;;;4.43;2.83;;;13.40;67.20;13.80;97336.00;;;;5017565;28;20214;-83
2022/04/16 06:40:16;;;;;;;3.20;2.90;;;13.40;67.10;13.80;97344.00;;;;5016223;28;20190;-83
2022/04/16 06:42:44;;;;;;;2.83;2.63;;;13.50;67.10;13.90;97347.00;;;;5000103;28;20210;-83
2022/04/16 06:45:13;;;;;;;3.03;2.83;;;13.50;67.00;13.90;97339.00;;;;5002859;28;20199;-83
2022/04/16 06:47:41;;;;;;;3.30;3.00;;;13.50;66.90;14.00;97340.00;;;;5004580;28;20305;-83
2022/04/16 06:50:10;;;;;;;2.97;2.60;;;13.50;66.90;14.00;97345.00;;;;5020656;28;20216;-82
2022/04/16 06:52:38;;;;;;;3.17;2.97;;;13.60;66.80;14.00;97349.00;;;;5006975;28;20217;-83
2022/04/16 06:55:07;;;;;;;3.17;2.97;;;13.60;66.50;14.00;97336.00;;;;5021773;28;20550;-83
2022/04/16 06:57:34;;;;;;;3.23;2.70;;;13.60;66.70;14.10;97343.00;;;;5061796;22;20320;-81
2022/04/16 07:00:01;;;;;;;3.30;3.10;;;13.70;66.80;14.10;97352.00;;;;5064104;28;20200;-82
2022/04/16 07:02:30;;;;;;;3.10;2.87;;;13.70;66.80;14.20;97350.00;;;;5049859;28;20295;-80
2022/04/16 07:04:58;;;;;;;3.10;2.80;;;13.70;66.70;14.20;97352.00;;;;5061411;28;20224;-82
2022/04/16 07:07:25;;;;;;;3.27;3.07;;;13.80;66.70;14.30;97352.00;;;;5075791;28;20216;-82
2022/04/16 07:09:52;;;;;;;2.93;2.73;;;13.90;66.60;14.30;97364.00;;;;5079293;28;20618;-82
2022/04/16 07:12:19;;;;;;;3.40;3.17;;;13.90;66.50;14.40;97359.00;;;;5058735;28;20231;-82
2022/04/16 07:14:46;;;;;;;3.10;2.90;;;13.90;66.40;14.40;97370.00;;;;5060917;28;20203;-81
2022/04/16 07:17:13;;;;;;;2.90;2.70;;;13.90;66.40;14.40;97372.00;;;;5060175;28;20229;-81
2022/04/16 07:19:42;;;;;;;2.87;2.67;;;14.00;66.40;14.50;97371.00;;;;5061757;28;20665;-82
2022/04/16 07:22:09;;;;;;;3.00;2.80;;;13.90;66.20;14.50;97373.00;;;;5057420;28;20197;-82
2022/04/16 07:24:38;;;;;;;2.97;2.67;;;14.10;66.30;14.60;97375.00;;;;5058260;28;20287;-81
2022/04/16 07:27:06;;;;;;;3.50;3.20;;;14.10;66.20;14.60;97379.00;;;;5058240;28;20704;-81
2022/04/16 07:29:33;;;;;;;2.70;2.50;;;14.10;65.90;14.60;97379.00;;;;5063661;28;20197;-81
2022/04/16 07:32:00;;;;;;;3.10;2.80;;;14.20;65.90;14.70;97383.00;;;;5060723;28;20229;-82
2022/04/16 07:34:27;;;;;;;3.20;2.80;;;14.20;65.80;14.70;97386.00;;;;5059317;28;20193;-81
2022/04/16 07:36:56;;;;;;;3.00;2.80;;;14.20;65.80;14.70;97382.00;;;;5050807;28;20213;-81
2022/04/16 07:39:23;;;;;;;2.83;2.63;;;14.20;65.80;14.80;97396.00;;;;5035605;28;20193;-82
2022/04/16 07:41:51;;;;;;;3.33;3.13;;;14.30;66.10;14.80;97394.00;;;;5047138;28;20589;-82
2022/04/16 07:44:19;;;;;;;3.27;3.07;;;14.30;66.20;14.90;97392.00;;;;5051289;28;20284;-82
2022/04/16 07:46:46;;;;;;;2.90;2.70;;;14.40;66.50;15.00;97392.00;;;;5053050;28;20221;-85
2022/04/16 07:49:13;;;;;;;2.57;2.40;;;14.40;66.70;15.10;97389.00;;;;5052523;28;20185;-84
2022/04/16 07:51:42;;;;;;;2.93;2.63;;;14.50;66.50;15.20;97396.00;;;;5052695;28;20219;-83
2022/04/16 07:54:11;;;;;;;2.97;2.77;;;14.50;66.30;15.20;97392.00;;;;5052521;28;20209;-83
2022/04/16 07:56:38;;;;;;;3.00;2.70;;;14.60;65.80;15.20;97395.00;;;;5055259;28;20225;-84
2022/04/16 07:59:05;;;;;;;2.53;2.43;;;14.60;65.70;15.20;97397.00;;;;5061992;28;20200;-82
2022/04/16 08:01:32;;;;;;;3.30;3.00;;;14.60;65.70;15.20;97399.00;;;;5064109;28;20188;-83
2022/04/16 08:03:59;;;;;;;2.93;2.57;;;14.70;65.80;15.20;97400.00;;;;5060700;28;20574;-83
2022/04/16 08:06:26;;;;;;;2.80;2.60;;;14.70;65.50;15.10;97403.00;;;;5059849;28;20215;-84
2022/04/16 08:08:53;;;;;;;3.10;2.90;;;14.70;65.70;15.10;97400.00;;;;5065589;28;20200;-82
2022/04/16 08:11:21;;;;;;;3.00;2.70;;;14.70;66.20;15.10;97403.00;;;;5063416;28;20188;-82
2022/04/16 08:13:48;;;;;;;2.77;2.57;;;14.60;66.40;15.10;97403.00;;;;5065141;28;20185;-83
2022/04/16 08:16:15;;;;;;;3.13;2.93;;;14.60;66.60;15.10;97414.00;;;;5073830;28;20212;-83
2022/04/16 08:18:42;;;;;;;2.90;2.70;;;14.60;67.00;15.10;97403.00;;;;5074296;28;20192;-82
2022/04/16 08:21:09;;;;;;;2.57;2.37;;;14.60;67.00;15.20;97412.00;;;;5074468;28;20203;-82
2022/04/16 08:23:43;;;;;;;2.83;2.63;;;14.60;67.40;15.20;97418.00;;;;5072818;28;20200;-82
2022/04/16 08:26:11;;;;;;;2.63;2.43;;;14.70;67.70;15.30;97421.00;;;;5067303;28;20216;-83
2022/04/16 08:28:39;;;;;;;2.80;2.60;;;14.70;67.70;15.40;97417.00;;;;5070194;28;20673;-82
2022/04/16 08:31:07;;;;;;;2.60;2.40;;;14.70;67.70;15.40;97410.00;;;;5070114;28;20201;-82
2022/04/16 08:33:34;;;;;;;2.97;2.77;;;14.70;67.90;15.50;97420.00;;;;5068676;28;20215;-83
2022/04/16 08:36:01;;;;;;;2.80;2.60;;;14.80;67.90;15.50;97413.00;;;;5064389;28;20200;-83
2022/04/16 08:38:28;;;;;;;2.90;2.70;;;14.80;68.00;15.60;97422.00;;;;5059613;28;20189;-82
2022/04/16 08:40:56;;;;;;;2.23;2.13;;;14.80;68.20;15.60;97423.00;;;;5059450;28;20220;-82
2022/04/16 08:43:23;;;;;;;2.93;2.43;;;14.90;67.90;15.60;97425.00;;;;5060381;28;20198;-83
2022/04/16 08:45:56;;;;;;;2.77;2.57;;;14.90;67.30;15.60;97422.00;;;;5060442;28;20204;-83
2022/04/16 08:48:25;;;;;;;2.80;2.60;;;14.90;66.70;15.50;97427.00;;;;5061679;28;20203;-83
2022/04/16 08:50:52;;;;;;;2.43;2.23;;;14.90;66.80;15.50;97431.00;;;;5067253;28;20192;-83
2022/04/16 08:53:19;;;;;;;2.53;2.40;;;14.90;66.40;15.40;97423.00;;;;5064247;28;20220;-83
2022/04/16 08:55:47;;;;;;;3.40;3.10;;;14.90;66.30;15.40;97425.00;;;;5061659;28;20267;-82
2022/04/16 08:58:13;;;;;;;2.80;2.60;;;14.90;66.00;15.30;97432.00;;;;5062548;28;20204;-83
2022/04/16 09:00:41;;;;;;;2.50;2.30;;;14.80;65.70;15.30;97422.00;;;;5061163;28;20188;-82
2022/04/16 09:03:10;;;;;;;2.77;2.57;;;14.80;65.90;15.30;97430.00;;;;5060774;28;20684;-83
2022/04/16 09:05:38;;;;;;;2.63;2.43;;;14.80;65.70;15.30;97430.00;;;;5053743;28;20580;-82
2022/04/16 09:08:07;;;;;;;2.70;2.30;;;14.80;65.20;15.30;97442.00;;;;5060914;28;20247;-82
2022/04/16 09:10:36;;;;;;;2.70;2.50;;;14.80;65.30;15.20;97437.00;;;;5056393;28;20209;-83
2022/04/16 09:13:05;;;;;;;2.70;2.50;;;14.70;65.20;15.20;97439.00;;;;5055165;28;20354;-83
2022/04/16 09:15:34;;;;;;;2.67;2.47;;;14.70;65.30;15.20;97450.00;;;;5054856;28;20206;-83
2022/04/16 09:18:03;;;;;;;2.37;2.27;;;14.70;65.10;15.20;97441.00;;;;5052373;28;20216;-83
2022/04/16 09:20:35;;;;;;;2.50;2.30;;;14.70;65.30;15.20;97452.00;;;;5056175;28;20196;-84
2022/04/16 09:23:14;;;;;;;2.43;2.30;;;14.70;65.10;15.20;97444.00;;;;5058719;28;20211;-83
2022/04/16 09:25:43;;;;;;;2.53;2.40;;;14.70;65.30;15.30;97449.00;;;;5050432;28;20281;-83
2022/04/16 09:28:10;;;;;;;2.10;2.00;;;14.70;65.50;15.40;97449.00;;;;5057507;28;20211;-84
2022/04/16 09:30:49;;;;;;;2.07;1.97;;;14.80;65.40;15.40;97452.00;;;;5055472;28;20207;-84
2022/04/16 09:33:16;;;;;;;2.30;2.20;;;14.80;65.30;15.50;97444.00;;;;5056530;28;20739;-83
2022/04/16 09:35:46;;;;;;;2.00;1.90;;;14.80;65.00;15.60;97450.00;;;;5049586;28;20195;-83
2022/04/16 09:38:14;;;;;;;1.97;1.87;;;14.90;65.00;15.70;97452.00;;;;5049901;28;20197;-83
2022/04/16 09:40:42;;;;;;;2.10;2.00;;;15.00;65.00;15.80;97452.00;;;;5056204;28;20434;-83
2022/04/16 09:43:10;;;;;;;2.70;2.10;;;15.00;64.80;15.90;97455.00;;;;5053235;28;20205;-83
2022/04/16 09:45:40;;;;;;;2.07;1.97;;;15.10;64.50;16.00;97452.00;;;;5052280;28;20193;-83
2022/04/16 09:48:11;;;;;;;2.20;2.10;;;15.20;64.50;16.00;97463.00;;;;5053980;28;20311;-81
2022/04/16 09:50:40;;;;;;;2.13;1.60;;;15.20;64.50;16.10;97459.00;;;;5050833;28;20189;-81
2022/04/16 09:53:09;;;;;;;1.70;1.60;;;15.30;63.90;16.20;97463.00;;;;5056913;28;20223;-81
2022/04/16 09:55:38;;;;;;;1.70;1.60;;;15.40;63.80;16.30;97469.00;;;;5049359;28;20565;-81
2022/04/16 09:58:07;;;;;;;1.53;1.47;;;15.50;63.80;16.50;97470.00;;;;5053904;28;20232;-81
2022/04/16 10:00:36;;;;;;;1.60;1.50;;;15.60;64.00;16.70;97468.00;;;;5052442;28;20208;-81
2022/04/16 10:03:07;;;;;;;2.10;1.90;;;15.70;64.10;16.80;97464.00;;;;5050787;28;20207;-81
2022/04/16 10:05:35;;;;;;;1.97;1.77;;;15.80;63.40;16.90;97465.00;;;;5050815;28;20200;-81
2022/04/16 10:08:04;;;;;;;2.13;1.70;;;16.00;63.00;17.00;97469.00;;;;5054061;28;20220;-82
2022/04/16 10:10:40;;;;;;;1.40;1.30;;;16.10;62.50;17.00;97473.00;;;;5053637;28;20644;-81
2022/04/16 10:13:11;;;;;;;1.83;1.73;;;16.20;62.30;17.10;97477.00;;;;5061141;28;20231;-81
2022/04/16 10:16:00;;;;;;;1.60;1.50;;;16.20;61.80;17.10;97484.00;;;;5055048;28;20612;-81
2022/04/16 10:18:29;;;;;;;1.70;1.60;;;16.30;60.70;17.20;97481.00;;;;5056536;28;20193;-81
2022/04/16 10:20:57;;;;;;;1.50;1.40;;;16.40;60.90;17.30;97478.00;;;;5061421;28;20730;-81
2022/04/16 10:23:30;;;;;;;2.33;1.50;;;16.40;60.90;17.40;97477.00;;;;5058313;28;20204;-80
2022/04/16 10:26:09;;;;;;;1.60;1.50;;;16.50;60.80;17.40;97482.00;;;;5061390;28;20205;-80
2022/04/16 10:28:42;;;;;;;1.17;1.17;;;16.60;60.50;17.40;97480.00;;;;5057545;28;20209;-81
2022/04/16 10:31:24;;;;;;;1.50;1.40;;;16.60;60.00;17.40;97487.00;;;;5051973;28;20643;-82
2022/04/16 10:34:01;;;;;;;1.73;1.63;;;16.70;59.50;17.30;97481.00;;;;5056060;28;20240;-80
2022/04/16 10:36:32;;;;;;;1.90;1.80;;;16.70;59.50;17.20;97489.00;;;;5066491;28;20208;-81
2022/04/16 10:39:00;;;;;;;2.00;1.90;;;16.60;59.10;17.00;97484.00;;;;5065602;28;20189;-80
2022/04/16 10:41:29;;;;;;;2.30;2.20;;;16.60;59.20;17.00;97493.00;;;;5060977;28;20661;-80
2022/04/16 10:43:59;;;;;;;1.93;1.83;;;16.50;59.40;16.90;97491.00;;;;5066008;28;20245;-80
2022/04/16 10:46:43;;;;;;;2.00;1.90;;;16.40;59.60;16.90;97495.00;;;;5061047;28;20743;-80
2022/04/16 10:49:12;;;;;;;2.23;2.13;;;16.40;59.60;16.90;97504.00;;;;5062599;28;20276;-81
2022/04/16 10:51:39;;;;;;;2.83;2.63;;;16.30;59.90;16.90;97509.00;;;;5065913;28;21365;-80
2022/04/16 10:54:10;;;;;;;2.50;2.30;;;16.30;60.00;17.00;97513.00;;;;5067120;28;20216;-81
2022/04/16 10:56:40;;;;;;;3.10;2.80;;;16.30;60.20;17.00;97520.00;;;;5063861;28;20223;-80
2022/04/16 10:59:10;;;;;;;3.70;3.40;;;16.30;60.10;16.90;97521.00;;;;5067310;28;20208;-80
2022/04/16 11:01:38;;;;;;;3.73;3.43;;;16.30;60.40;16.80;97528.00;;;;5067162;28;20195;-80
2022/04/16 11:04:14;;;;;;;3.70;3.40;;;16.20;59.40;16.60;97529.00;;;;5063633;28;20827;-81
2022/04/16 11:06:45;;;;;;;3.40;3.10;;;16.20;58.80;16.40;97530.00;;;;5065036;28;20219;-81
2022/04/16 11:09:14;;;;;;;4.47;4.07;;;16.00;58.60;16.20;97524.00;;;;5062620;28;20212;-81
2022/04/16 11:11:43;;;;;;;4.33;4.00;;;15.90;58.80;16.10;97528.00;;;;5071793;28;20203;-80
2022/04/16 11:14:11;;;;;;;3.53;3.23;;;15.80;59.10;16.00;97533.00;;;;5078244;28;21369;-80
2022/04/16 11:16:45;;;;;;;5.23;4.73;;;15.70;59.20;15.90;97532.00;;;;5079003;28;20319;-82
2022/04/16 11:19:15;;;;;;;5.20;4.20;;;15.60;59.70;15.80;97527.00;;;;5073343;28;20187;-80